Time;durP1;ratioP1;P1;durP2;ratioP2;P2;SDS_P1;SDS_P2;PMS_P1;PMS_P2;Temp;Humidity;BMP_temperature;BMP_pressure;BME280_temperature;BME280_humidity;BME280_pressure;Samples;Min_cycle;Max_cycle;Signal;HPM_P1;HPM_P2
2021/09/09 11:34:43;;;;;;;4.97;3.00;;;27.60;95.10;;;;;;5105726;27;20418;-87
2021/09/09 11:37:09;;;;;;;5.57;3.20;;;27.60;94.90;;;;;;5111256;28;20038;-87
2021/09/09 11:39:36;;;;;;;4.40;2.72;;;27.60;94.70;;;;;;5110104;28;20023;-87
2021/09/09 11:42:04;;;;;;;4.78;3.03;;;27.60;94.20;;;;;;5112585;28;20051;-88
2021/09/09 11:44:37;;;;;;;5.35;2.70;;;27.80;93.90;;;;;;5102592;28;20027;-87
2021/09/09 11:47:12;;;;;;;6.68;3.22;;;27.60;93.40;;;;;;5110384;28;20020;-87
2021/09/09 11:49:38;;;;;;;5.82;2.88;;;27.50;94.30;;;;;;5107909;28;20102;-87
2021/09/09 11:52:06;;;;;;;6.68;3.38;;;27.00;94.20;;;;;;5108184;28;20028;-86
2021/09/09 11:54:33;;;;;;;12.13;3.05;;;26.70;95.00;;;;;;5105303;28;20060;-89
2021/09/09 11:57:11;;;;;;;5.38;3.08;;;26.50;94.60;;;;;;5093962;28;20051;-88
2021/09/09 11:59:48;;;;;;;6.72;3.30;;;26.70;94.40;;;;;;5104583;28;20027;-88
2021/09/09 12:02:18;;;;;;;5.15;3.40;;;26.40;95.20;;;;;;5106736;28;20035;-87
2021/09/09 12:04:45;;;;;;;7.85;3.35;;;26.20;95.20;;;;;;5110120;28;20662;-87
2021/09/09 12:07:18;;;;;;;7.32;3.35;;;25.90;94.90;;;;;;5107945;28;20055;-87
2021/09/09 12:09:54;;;;;;;8.00;3.55;;;25.70;95.30;;;;;;5101843;28;20120;-87
2021/09/09 12:12:21;;;;;;;8.45;3.25;;;25.50;95.20;;;;;;5109142;28;20133;-88
2021/09/09 12:15:04;;;;;;;5.35;3.05;;;26.00;95.80;;;;;;5093228;28;20035;-87
2021/09/09 12:17:31;;;;;;;8.07;3.22;;;26.60;95.00;;;;;;5090537;28;20047;-88
2021/09/09 12:20:00;;;;;;;6.35;3.05;;;27.10;94.00;;;;;;5095222;28;20023;-89
2021/09/09 12:22:56;;;;;;;5.70;3.30;;;27.50;92.60;;;;;;5106638;28;20032;-89
2021/09/09 12:25:24;;;;;;;6.13;3.28;;;27.60;92.40;;;;;;5106638;28;20484;-88
2021/09/09 12:28:07;;;;;;;7.57;3.03;;;27.50;91.90;;;;;;5101496;28;20031;-88
2021/09/09 12:30:34;;;;;;;4.68;3.22;;;27.40;91.90;;;;;;5098605;28;20027;-88
2021/09/09 12:33:24;;;;;;;5.75;3.35;;;27.40;91.80;;;;;;5099432;28;20635;-88
2021/09/09 12:36:20;;;;;;;6.05;3.47;;;27.20;91.50;;;;;;5102693;28;20156;-88
2021/09/09 12:38:52;;;;;;;8.00;3.63;;;27.00;91.80;;;;;;5105345;28;20081;-88
2021/09/09 12:41:17;;;;;;;5.88;3.53;;;27.00;92.40;;;;;;5103333;28;20012;-88
2021/09/09 12:43:50;;;;;;;6.75;3.15;;;26.80;91.70;;;;;;5098027;28;20572;-88
2021/09/09 12:46:45;;;;;;;5.88;3.05;;;26.80;92.70;;;;;;5091413;28;20109;-89
2021/09/09 12:49:25;;;;;;;8.27;3.30;;;26.70;92.10;;;;;;5097150;28;20016;-89
2021/09/09 12:52:17;;;;;;;6.93;3.33;;;26.80;92.30;;;;;;5094302;28;20044;-90
2021/09/09 12:54:46;;;;;;;6.10;3.00;;;27.00;92.10;;;;;;5101809;28;20040;-90
2021/09/09 12:57:30;;;;;;;5.05;3.00;;;27.20;91.40;;;;;;5084479;28;20020;-91
2021/09/09 13:00:19;;;;;;;6.78;3.22;;;27.30;90.70;;;;;;5096655;28;20040;-91
2021/09/09 13:02:45;;;;;;;5.93;3.17;;;27.20;90.60;;;;;;5094190;28;20016;-90
2021/09/09 13:05:26;;;;;;;5.43;3.10;;;27.20;90.60;;;;;;5091942;28;20089;-90
2021/09/09 13:08:02;;;;;;;7.47;3.67;;;27.20;90.70;;;;;;5088152;28;20628;-90
2021/09/09 13:10:49;;;;;;;7.38;2.75;;;27.70;90.00;;;;;;5094079;28;20028;-91
2021/09/09 13:13:17;;;;;;;5.20;3.13;;;28.20;87.70;;;;;;5093514;28;20031;-91
2021/09/09 13:15:47;;;;;;;6.07;3.00;;;28.40;88.10;;;;;;5086754;28;20020;-91
2021/09/09 13:18:15;;;;;;;5.40;3.08;;;29.20;87.20;;;;;;5093366;28;20035;-91
2021/09/09 13:20:47;;;;;;;5.63;3.17;;;29.20;86.30;;;;;;5078921;28;20093;-91
2021/09/09 13:23:12;;;;;;;5.05;3.00;;;29.70;86.80;;;;;;5082852;28;20029;-91
2021/09/09 13:25:39;;;;;;;6.40;3.40;;;30.00;85.00;;;;;;5072462;28;20109;-89
2021/09/09 13:28:07;;;;;;;5.40;3.03;;;30.30;82.30;;;;;;5072321;28;20032;-89
2021/09/09 13:30:35;;;;;;;5.90;3.17;;;30.40;81.70;;;;;;5071370;28;20074;-89
2021/09/09 13:33:01;;;;;;;5.15;2.97;;;30.40;81.20;;;;;;5073165;28;20068;-89
2021/09/09 13:35:31;;;;;;;6.03;3.17;;;30.60;81.80;;;;;;5089856;28;20093;-89
2021/09/09 13:38:05;;;;;;;6.35;3.80;;;30.50;80.70;;;;;;5090808;28;20024;-89
2021/09/09 13:40:31;;;;;;;5.00;2.92;;;30.30;80.80;;;;;;5092446;28;20106;-89
2021/09/09 13:42:57;;;;;;;6.82;3.28;;;30.10;81.50;;;;;;5081357;28;20029;-89
2021/09/09 13:45:23;;;;;;;5.13;3.05;;;29.80;81.40;;;;;;5081911;28;20028;-89
2021/09/09 13:47:49;;;;;;;6.47;2.92;;;29.70;81.10;;;;;;5092384;28;20101;-88
2021/09/09 13:50:19;;;;;;;6.35;3.03;;;29.50;81.40;;;;;;5092503;28;20435;-89
2021/09/09 13:52:47;;;;;;;4.22;2.80;;;29.50;82.60;;;;;;5092042;28;20035;-89
2021/09/09 13:55:19;;;;;;;4.70;2.97;;;29.60;80.90;;;;;;5094258;28;20036;-89
2021/09/09 13:57:45;;;;;;;7.70;2.83;;;29.80;79.90;;;;;;5086970;28;20028;-89
2021/09/09 14:00:11;;;;;;;6.30;2.65;;;29.50;81.00;;;;;;5084055;28;20081;-88
2021/09/09 14:02:37;;;;;;;4.43;2.65;;;29.00;81.40;;;;;;5093826;28;20031;-88
2021/09/09 14:05:10;;;;;;;4.57;2.80;;;29.30;82.20;;;;;;5092129;28;20062;-87
2021/09/09 14:07:42;;;;;;;6.57;3.28;;;29.20;81.20;;;;;;5092923;28;20036;-88
2021/09/09 14:10:10;;;;;;;4.97;3.00;;;29.20;80.90;;;;;;5092883;28;20081;-88
2021/09/09 14:12:36;;;;;;;4.53;2.83;;;29.00;80.40;;;;;;5090783;28;20031;-88
2021/09/09 14:15:07;;;;;;;6.50;3.20;;;28.80;81.30;;;;;;5073577;28;20028;-88
2021/09/09 14:17:33;;;;;;;5.95;3.00;;;28.60;81.40;;;;;;5080456;28;20031;-89
2021/09/09 14:20:02;;;;;;;6.22;2.97;;;28.40;82.10;;;;;;5091766;28;20349;-89
2021/09/09 14:22:29;;;;;;;7.60;2.83;;;28.50;81.70;;;;;;5093439;28;20104;-88
2021/09/09 14:24:59;;;;;;;5.82;3.10;;;28.40;81.30;;;;;;5093577;28;20023;-89
2021/09/09 14:27:24;;;;;;;5.57;2.90;;;28.30;81.00;;;;;;5087290;28;20111;-88
2021/09/09 14:29:53;;;;;;;5.32;2.65;;;28.60;82.10;;;;;;5082153;28;20055;-89
2021/09/09 14:32:19;;;;;;;7.05;3.00;;;28.80;80.10;;;;;;5091918;28;20043;-89
2021/09/09 14:34:47;;;;;;;5.25;3.10;;;28.70;78.70;;;;;;5081261;28;20453;-90
2021/09/09 14:37:13;;;;;;;4.75;2.70;;;28.50;79.10;;;;;;5092109;28;20034;-88
2021/09/09 14:39:40;;;;;;;7.60;3.20;;;28.80;80.00;;;;;;5090153;28;20028;-89
2021/09/09 14:42:06;;;;;;;6.90;2.58;;;29.60;77.90;;;;;;5089994;28;20024;-89
2021/09/09 14:44:32;;;;;;;6.20;2.78;;;29.50;78.80;;;;;;5086462;28;20025;-89
2021/09/09 14:46:57;;;;;;;4.95;2.72;;;29.40;78.10;;;;;;5071615;28;20428;-88
2021/09/09 14:49:23;;;;;;;8.18;2.80;;;29.70;76.40;;;;;;5088698;28;20054;-89
2021/09/09 14:51:54;;;;;;;5.80;2.70;;;29.40;76.80;;;;;;5072477;28;20036;-88
2021/09/09 14:54:22;;;;;;;4.90;2.80;;;29.40;77.60;;;;;;5071751;28;20035;-89
2021/09/09 14:56:51;;;;;;;4.60;2.53;;;29.80;75.50;;;;;;5072275;28;20040;-88
2021/09/09 14:59:16;;;;;;;6.90;2.55;;;30.10;75.40;;;;;;5076756;28;20123;-88
2021/09/09 15:01:42;;;;;;;4.60;2.58;;;30.80;73.60;;;;;;5089843;28;20161;-88
2021/09/09 15:04:07;;;;;;;4.55;2.67;;;30.90;73.30;;;;;;5090478;28;20021;-89
2021/09/09 15:06:36;;;;;;;5.53;2.45;;;30.90;71.90;;;;;;5091922;28;20056;-89
2021/09/09 15:09:02;;;;;;;4.55;2.17;;;30.50;72.40;;;;;;5089964;28;20021;-89
2021/09/09 15:11:28;;;;;;;5.18;3.13;;;30.00;73.10;;;;;;5080604;28;20082;-90
2021/09/09 15:13:53;;;;;;;5.05;2.58;;;29.70;73.40;;;;;;5072256;28;20035;-90
2021/09/09 15:16:19;;;;;;;4.53;2.45;;;29.60;75.00;;;;;;5079125;28;20036;-89
2021/09/09 15:18:45;;;;;;;5.72;2.63;;;29.50;75.70;;;;;;5093175;28;20028;-89
2021/09/09 15:21:10;;;;;;;4.93;2.83;;;30.00;75.40;;;;;;5091885;28;20063;-89
2021/09/09 15:23:36;;;;;;;4.53;2.60;;;30.40;72.30;;;;;;5088291;28;20498;-90
2021/09/09 15:26:02;;;;;;;4.15;2.40;;;30.60;72.10;;;;;;5078627;28;20077;-91
2021/09/09 15:28:29;;;;;;;7.65;3.08;;;30.30;71.00;;;;;;5088712;28;20117;-87
2021/09/09 15:30:55;;;;;;;4.60;2.70;;;29.60;72.30;;;;;;5086963;28;20118;-91
2021/09/09 15:33:25;;;;;;;5.75;2.80;;;29.10;73.40;;;;;;5086777;28;20555;-90
2021/09/09 15:35:51;;;;;;;4.47;2.50;;;28.70;73.60;;;;;;5078379;28;20037;-89
2021/09/09 15:38:20;;;;;;;5.72;3.15;;;28.90;74.60;;;;;;5070150;28;20029;-90
2021/09/09 15:40:46;;;;;;;5.82;2.92;;;28.40;74.80;;;;;;5070931;28;20118;-89
2021/09/09 15:43:26;;;;;;;4.75;3.00;;;28.50;75.80;;;;;;5071558;28;20129;-90
2021/09/09 15:45:55;;;;;;;7.68;3.60;;;28.50;75.20;;;;;;5071017;28;20029;-89
2021/09/09 15:48:21;;;;;;;5.78;2.85;;;28.20;76.10;;;;;;5070715;28;20095;-90
2021/09/09 15:50:49;;;;;;;5.93;3.00;;;28.20;76.60;;;;;;5071362;28;20500;-89
2021/09/09 15:53:15;;;;;;;6.30;3.00;;;28.50;76.70;;;;;;5081831;28;20431;-90
2021/09/09 15:55:44;;;;;;;4.60;3.10;;;28.60;76.90;;;;;;5070287;28;20029;-89
2021/09/09 15:58:10;;;;;;;6.38;3.13;;;28.20;76.40;;;;;;5070171;28;20029;-90
2021/09/09 16:00:39;;;;;;;6.85;3.15;;;27.80;77.50;;;;;;5070009;28;20074;-87
2021/09/09 16:03:08;;;;;;;5.07;3.15;;;27.30;77.60;;;;;;5082767;28;20043;-89
2021/09/09 16:05:33;;;;;;;6.78;3.35;;;26.90;78.40;;;;;;5083430;28;20056;-88
2021/09/09 16:07:59;;;;;;;6.15;3.30;;;26.60;79.10;;;;;;5078561;28;20048;-88
2021/09/09 16:10:25;;;;;;;6.68;3.42;;;26.40;80.40;;;;;;5088972;28;20021;-89
2021/09/09 16:12:50;;;;;;;5.47;2.90;;;26.20;81.10;;;;;;5080271;28;20620;-87
2021/09/09 16:18:08;;;;;;;6.43;2.92;;;25.90;82.70;;;;;;5090757;28;20062;-89
2021/09/09 16:20:41;;;;;;;7.40;3.38;;;25.70;81.60;;;;;;5087347;28;20048;-89
2021/09/09 16:23:10;;;;;;;5.65;2.92;;;25.60;82.20;;;;;;5085575;28;20029;-89
2021/09/09 16:25:45;;;;;;;5.20;2.97;;;25.50;82.70;;;;;;5090127;28;20068;-88
2021/09/09 16:28:11;;;;;;;6.93;3.00;;;25.50;83.50;;;;;;5086171;28;20518;-88
2021/09/09 16:30:41;;;;;;;8.30;3.08;;;25.40;83.60;;;;;;5085628;28;20031;-87
2021/09/09 16:33:11;;;;;;;8.10;3.10;;;25.30;82.90;;;;;;5082226;28;20028;-89
2021/09/09 16:35:38;;;;;;;6.80;3.10;;;25.20;82.80;;;;;;5091009;28;20044;-88
2021/09/09 16:38:09;;;;;;;7.70;3.10;;;25.20;83.30;;;;;;5093423;28;20024;-88
2021/09/09 16:40:34;;;;;;;;;;;25.30;84.20;;;;;;5088548;28;20021;-88
2021/09/09 16:43:03;;;;;;;6.18;3.13;;;25.10;84.10;;;;;;5073153;28;19919;-87
2021/09/09 16:45:30;;;;;;;6.13;3.33;;;25.10;84.90;;;;;;5091087;28;20453;-89
2021/09/09 16:47:56;;;;;;;8.45;3.25;;;25.10;84.60;;;;;;5090538;28;20056;-88
2021/09/09 16:50:22;;;;;;;7.30;3.30;;;25.00;85.90;;;;;;5092235;28;20141;-88
2021/09/09 16:52:48;;;;;;;4.53;2.67;;;25.00;86.50;;;;;;5107812;22;20044;-85
2021/09/09 16:55:14;;;;;;;5.72;3.42;;;25.00;86.50;;;;;;5094016;28;20145;-84
2021/09/09 16:57:44;;;;;;;6.80;3.20;;;24.90;86.60;;;;;;5079436;28;20027;-84
2021/09/09 17:00:15;;;;;;;5.90;3.17;;;24.90;88.00;;;;;;5079833;28;20028;-83
2021/09/09 17:02:44;;;;;;;5.88;3.20;;;24.80;89.40;;;;;;5103922;28;20063;-84
2021/09/09 17:05:11;;;;;;;7.30;3.10;;;24.70;87.30;;;;;;5093134;28;20371;-83
2021/09/09 17:07:37;;;;;;;7.38;3.50;;;24.70;87.10;;;;;;5095597;28;20026;-83
2021/09/09 17:10:04;;;;;;;6.68;3.40;;;24.60;87.60;;;;;;5108108;28;20099;-83
2021/09/09 17:12:31;;;;;;;6.28;3.40;;;24.60;89.00;;;;;;5112602;28;20023;-83
2021/09/09 17:14:57;;;;;;;10.77;3.30;;;24.60;89.50;;;;;;5109603;28;20012;-83
2021/09/09 17:17:23;;;;;;;6.28;3.38;;;24.50;89.20;;;;;;5114900;28;20026;-82
2021/09/09 17:19:48;;;;;;;5.20;3.05;;;24.40;89.50;;;;;;5111703;28;20047;-83
2021/09/09 17:22:14;;;;;;;6.65;3.30;;;24.40;90.00;;;;;;5118253;28;20415;-83
2021/09/09 17:24:39;;;;;;;7.15;3.20;;;24.30;89.80;;;;;;5106309;28;20037;-83
2021/09/09 17:27:06;;;;;;;5.53;3.42;;;24.20;89.10;;;;;;5092506;28;20023;-83
2021/09/09 17:29:32;;;;;;;7.43;3.50;;;24.10;89.70;;;;;;5115690;28;20027;-83
2021/09/09 17:31:57;;;;;;;6.40;3.55;;;24.10;90.60;;;;;;5110513;28;20022;-83
2021/09/09 17:34:23;;;;;;;6.32;3.40;;;24.00;91.00;;;;;;5105800;28;20024;-83
2021/09/09 17:36:49;;;;;;;6.47;3.80;;;23.80;91.50;;;;;;5105862;28;20027;-83
2021/09/09 17:39:16;;;;;;;6.22;3.50;;;23.70;91.30;;;;;;5113044;28;20781;-83
2021/09/09 17:41:42;;;;;;;7.00;2.92;;;23.60;91.20;;;;;;5096919;28;21601;-84
2021/09/09 17:44:12;;;;;;;8.85;3.80;;;23.50;91.00;;;;;;5097018;28;20122;-83
2021/09/09 17:46:40;;;;;;;6.28;3.20;;;23.50;91.40;;;;;;5088023;28;20023;-80
2021/09/09 17:49:07;;;;;;;6.82;3.45;;;23.40;91.70;;;;;;5084852;28;20043;-80
2021/09/09 17:51:32;;;;;;;6.05;3.35;;;23.30;91.60;;;;;;5090927;28;20035;-81
2021/09/09 17:53:58;;;;;;;8.73;3.60;;;23.20;91.80;;;;;;5109960;28;20106;-83
2021/09/09 17:56:24;;;;;;;7.45;3.05;;;23.10;92.20;;;;;;5111372;28;20031;-81
2021/09/09 17:58:49;;;;;;;6.75;3.30;;;23.10;91.90;;;;;;5094959;28;20023;-83
2021/09/09 18:01:15;;;;;;;6.72;3.40;;;23.00;92.30;;;;;;5106155;28;20028;-83
2021/09/09 18:03:42;;;;;;;6.05;3.22;;;23.00;92.30;;;;;;5109919;28;20027;-83
2021/09/09 18:06:08;;;;;;;6.63;3.63;;;22.90;92.50;;;;;;5109869;28;20206;-82
2021/09/09 18:08:33;;;;;;;7.03;3.53;;;22.90;92.70;;;;;;5113590;28;20022;-83
2021/09/09 18:10:59;;;;;;;5.90;3.60;;;22.70;92.80;;;;;;5099428;28;20022;-83
2021/09/09 18:13:25;;;;;;;6.80;3.75;;;22.70;93.20;;;;;;5098572;28;20051;-82
2021/09/09 18:15:51;;;;;;;11.50;3.60;;;22.50;93.20;;;;;;5112360;28;20031;-83
2021/09/09 18:18:17;;;;;;;6.00;3.35;;;22.50;93.50;;;;;;5113432;28;20028;-83
2021/09/09 18:20:43;;;;;;;6.90;3.65;;;22.40;93.20;;;;;;5097451;28;20115;-83
2021/09/09 18:23:10;;;;;;;6.43;3.88;;;22.30;93.60;;;;;;5115463;28;20112;-82
2021/09/09 18:25:36;;;;;;;8.05;3.50;;;22.30;94.20;;;;;;5098616;28;20121;-83
2021/09/09 18:28:01;;;;;;;4.97;3.15;;;22.20;94.00;;;;;;5116098;28;20117;-83
2021/09/09 18:30:27;;;;;;;7.70;3.50;;;22.10;93.40;;;;;;5115874;28;20057;-83
2021/09/09 18:32:52;;;;;;;6.40;3.30;;;22.10;93.30;;;;;;5111681;28;20029;-83
2021/09/09 18:35:18;;;;;;;6.68;3.38;;;22.00;93.90;;;;;;5116429;28;20047;-83
2021/09/09 18:37:44;;;;;;;5.45;3.42;;;22.00;93.70;;;;;;5100331;28;20043;-83
2021/09/09 18:40:10;;;;;;;6.72;3.70;;;21.90;94.00;;;;;;5095413;28;20024;-83
2021/09/09 18:42:36;;;;;;;7.20;3.17;;;21.90;94.10;;;;;;5111829;28;20396;-83
2021/09/09 18:45:04;;;;;;;5.50;3.63;;;21.90;93.70;;;;;;5087471;28;20024;-83
2021/09/09 18:47:29;;;;;;;7.00;3.40;;;21.80;93.70;;;;;;5088088;28;20019;-83
2021/09/09 18:49:55;;;;;;;5.55;3.25;;;21.80;93.50;;;;;;5104036;28;20498;-83
2021/09/09 18:52:21;;;;;;;6.03;3.35;;;21.80;93.60;;;;;;5107603;28;20053;-83
2021/09/09 18:54:47;;;;;;;8.13;3.25;;;21.80;93.70;;;;;;5104829;28;20065;-82
2021/09/09 18:57:12;;;;;;;6.30;3.72;;;21.80;94.30;;;;;;5110561;28;20024;-83
2021/09/09 18:59:38;;;;;;;6.47;3.50;;;21.70;94.10;;;;;;5116224;28;20024;-82
2021/09/09 19:02:04;;;;;;;7.32;3.28;;;21.70;93.70;;;;;;5110968;28;20028;-81
2021/09/09 19:04:29;;;;;;;7.07;3.25;;;21.70;94.00;;;;;;5108128;28;20028;-81
2021/09/09 19:06:56;;;;;;;5.55;3.20;;;21.70;94.10;;;;;;5114272;28;20058;-83
2021/09/09 19:09:21;;;;;;;6.97;3.42;;;21.60;94.00;;;;;;5096855;28;20126;-83
2021/09/09 19:11:47;;;;;;;8.68;3.08;;;21.70;93.90;;;;;;5105094;28;20027;-83
2021/09/09 19:14:13;;;;;;;5.03;3.22;;;21.60;94.10;;;;;;5106584;28;20023;-81
2021/09/09 19:16:38;;;;;;;5.50;3.33;;;21.60;94.20;;;;;;5115027;28;20051;-81
2021/09/09 19:19:06;;;;;;;6.43;3.35;;;21.60;94.40;;;;;;5099899;28;20625;-84
2021/09/09 19:21:33;;;;;;;8.07;3.40;;;21.60;94.10;;;;;;5111833;28;20023;-83
2021/09/09 19:23:59;;;;;;;5.15;3.40;;;21.50;94.50;;;;;;5103614;28;20062;-82
2021/09/09 19:26:25;;;;;;;6.15;3.22;;;21.50;94.70;;;;;;5104001;28;20043;-83
2021/09/09 19:28:50;;;;;;;7.78;3.65;;;21.50;93.80;;;;;;5099968;28;20087;-82
2021/09/09 19:31:16;;;;;;;6.70;3.65;;;21.40;94.20;;;;;;5106928;28;20012;-84
2021/09/09 19:33:43;;;;;;;7.68;3.08;;;21.40;94.40;;;;;;5106430;28;20066;-83
2021/09/09 19:36:09;;;;;;;5.63;3.30;;;21.40;94.60;;;;;;5107015;28;20024;-84
2021/09/09 19:38:35;;;;;;;5.47;3.40;;;21.40;94.80;;;;;;5086447;28;20032;-83
2021/09/09 19:41:00;;;;;;;6.82;3.47;;;21.30;94.90;;;;;;5099313;28;20479;-84
2021/09/09 19:43:26;;;;;;;7.07;3.38;;;21.30;95.00;;;;;;5110534;28;20031;-83
2021/09/09 19:45:52;;;;;;;5.82;3.30;;;21.30;95.00;;;;;;5115025;28;20020;-83
2021/09/09 19:48:17;;;;;;;6.72;3.70;;;21.30;95.30;;;;;;5096394;28;20029;-83
2021/09/09 19:50:45;;;;;;;6.93;3.88;;;21.20;95.00;;;;;;5095610;28;20012;-84
2021/09/09 19:53:11;;;;;;;5.70;3.38;;;21.20;95.30;;;;;;5098179;28;20035;-84
2021/09/09 19:55:37;;;;;;;6.30;3.20;;;21.20;95.40;;;;;;5112366;28;20071;-84
2021/09/09 19:58:02;;;;;;;8.10;3.67;;;21.20;95.20;;;;;;5117135;28;20040;-84
2021/09/09 20:00:28;;;;;;;7.75;3.35;;;21.10;94.90;;;;;;5096008;28;20441;-84
2021/09/09 20:02:54;;;;;;;5.85;3.28;;;21.10;94.90;;;;;;5117949;28;20121;-84
2021/09/09 20:05:20;;;;;;;8.02;3.47;;;21.10;95.10;;;;;;5103288;28;20023;-84
2021/09/09 20:07:46;;;;;;;4.95;3.05;;;21.10;94.90;;;;;;5115992;28;20024;-84
2021/09/09 20:10:12;;;;;;;6.20;3.22;;;21.10;95.00;;;;;;5101246;28;20028;-84
2021/09/09 20:12:38;;;;;;;7.78;3.22;;;21.10;95.10;;;;;;5093058;28;20024;-84
2021/09/09 20:15:04;;;;;;;4.72;3.08;;;21.00;95.10;;;;;;5119170;28;20022;-84
2021/09/09 20:17:30;;;;;;;5.65;3.78;;;21.00;95.10;;;;;;5116555;28;20027;-84
2021/09/09 20:19:55;;;;;;;6.40;3.67;;;21.00;95.00;;;;;;5118335;28;20476;-84
2021/09/09 20:22:21;;;;;;;5.50;3.50;;;21.00;95.00;;;;;;5117746;28;20399;-83
2021/09/09 20:24:47;;;;;;;5.60;3.20;;;20.90;95.50;;;;;;5120290;28;20053;-84
2021/09/09 20:27:13;;;;;;;8.30;3.75;;;20.90;95.40;;;;;;5103927;28;20111;-84
2021/09/09 20:29:41;;;;;;;5.90;3.80;;;20.90;95.50;;;;;;5114990;28;20045;-83
2021/09/09 20:32:07;;;;;;;5.88;3.83;;;20.80;95.30;;;;;;5119499;28;20111;-83
2021/09/09 20:34:33;;;;;;;5.82;3.13;;;20.80;95.40;;;;;;5115701;28;20024;-83
2021/09/09 20:36:58;;;;;;;5.85;3.55;;;20.80;95.40;;;;;;5114834;28;20034;-84
2021/09/09 20:39:24;;;;;;;8.05;3.38;;;20.80;95.50;;;;;;5115392;28;20053;-83
2021/09/09 20:41:50;;;;;;;6.80;3.45;;;20.80;94.70;;;;;;5100309;28;20028;-84
2021/09/09 20:44:15;;;;;;;7.00;3.83;;;20.80;94.90;;;;;;5117344;28;20073;-83
2021/09/09 20:46:41;;;;;;;9.35;3.40;;;20.70;95.20;;;;;;5098241;28;20016;-83
2021/09/09 20:49:07;;;;;;;6.93;3.53;;;20.70;95.60;;;;;;5115708;28;20028;-84
2021/09/09 20:51:32;;;;;;;4.97;3.13;;;20.60;95.80;;;;;;5116909;28;20016;-83
2021/09/09 20:53:58;;;;;;;5.65;3.20;;;20.50;95.40;;;;;;5119848;28;20024;-84
2021/09/09 20:56:24;;;;;;;7.93;3.50;;;20.50;95.40;;;;;;5104186;28;20056;-84
2021/09/09 20:58:49;;;;;;;6.25;3.67;;;20.50;95.70;;;;;;5103966;28;20053;-84
2021/09/09 21:01:15;;;;;;;8.70;4.20;;;20.40;95.80;;;;;;5114022;28;20074;-83
2021/09/09 21:03:42;;;;;;;6.88;3.78;;;20.30;96.10;;;;;;5098251;28;20053;-84
2021/09/09 21:06:08;;;;;;;5.97;3.47;;;20.30;96.20;;;;;;5110442;28;20103;-84
2021/09/09 21:08:34;;;;;;;12.93;3.95;;;20.30;96.60;;;;;;5105899;28;20020;-84
2021/09/09 21:11:00;;;;;;;5.78;3.60;;;20.20;96.70;;;;;;5087277;28;20364;-84
2021/09/09 21:13:25;;;;;;;6.53;3.60;;;20.20;96.80;;;;;;5086922;28;20569;-84
2021/09/09 21:15:51;;;;;;;8.82;3.63;;;20.10;96.90;;;;;;5091864;28;20097;-84
2021/09/09 21:18:17;;;;;;;6.97;3.70;;;20.10;97.20;;;;;;5120568;28;20019;-84
2021/09/09 21:20:43;;;;;;;5.63;3.55;;;20.10;97.30;;;;;;5107613;28;20047;-83
2021/09/09 21:23:08;;;;;;;9.25;3.58;;;20.00;97.50;;;;;;5108872;28;20039;-83
2021/09/09 21:25:34;;;;;;;9.60;4.35;;;20.00;97.70;;;;;;5124814;28;20024;-84
2021/09/09 21:28:00;;;;;;;7.60;3.60;;;20.00;97.90;;;;;;5126038;28;20062;-84
2021/09/09 21:30:27;;;;;;;5.78;3.80;;;20.00;97.90;;;;;;5113456;28;20039;-84
2021/09/09 21:32:53;;;;;;;8.52;3.88;;;19.90;98.10;;;;;;5105218;28;20036;-84
2021/09/09 21:35:18;;;;;;;6.70;4.15;;;19.90;98.30;;;;;;5105608;28;20112;-83
2021/09/09 21:37:44;;;;;;;6.65;4.00;;;19.90;98.30;;;;;;5104202;28;20083;-83
2021/09/09 21:40:11;;;;;;;6.47;3.92;;;19.90;97.90;;;;;;5103095;28;20052;-84
2021/09/09 21:42:37;;;;;;;8.38;4.30;;;19.90;97.90;;;;;;5106957;28;20103;-84
2021/09/09 21:45:03;;;;;;;6.95;3.80;;;19.90;98.00;;;;;;5108528;28;20024;-83
2021/09/09 21:47:30;;;;;;;6.22;3.78;;;19.80;98.40;;;;;;5109436;28;20023;-85
2021/09/09 21:49:56;;;;;;;7.22;3.88;;;19.80;98.80;;;;;;5108508;28;20059;-83
2021/09/09 21:52:21;;;;;;;5.97;4.13;;;19.90;98.50;;;;;;5107163;28;20028;-83
2021/09/09 21:54:47;;;;;;;6.07;4.32;;;19.90;98.50;;;;;;5106030;28;20024;-83
2021/09/09 21:57:13;;;;;;;9.20;4.43;;;19.90;98.40;;;;;;5087958;28;20024;-83
2021/09/09 21:59:38;;;;;;;6.38;3.92;;;19.90;98.40;;;;;;5091043;28;20054;-82
2021/09/09 22:02:05;;;;;;;8.95;4.22;;;19.90;98.40;;;;;;5108837;28;20024;-83
2021/09/09 22:04:30;;;;;;;6.72;4.10;;;19.90;98.40;;;;;;5103380;28;20039;-84
2021/09/09 22:06:58;;;;;;;6.25;3.95;;;19.90;98.50;;;;;;5119082;28;20028;-80
2021/09/09 22:09:24;;;;;;;6.07;4.15;;;19.90;98.40;;;;;;5099278;28;20050;-80
2021/09/09 22:11:50;;;;;;;5.85;4.05;;;19.90;98.70;;;;;;5095097;28;20536;-80
2021/09/09 22:14:15;;;;;;;8.38;3.95;;;19.90;98.90;;;;;;5099097;28;20052;-80
2021/09/09 22:16:41;;;;;;;5.70;3.78;;;19.90;99.10;;;;;;5099244;28;20034;-81
2021/09/09 22:19:06;;;;;;;6.97;3.70;;;19.80;98.80;;;;;;5082545;28;20426;-80
2021/09/09 22:21:32;;;;;;;6.35;4.35;;;19.70;99.10;;;;;;5101984;28;20034;-80
2021/09/09 22:23:58;;;;;;;7.63;4.47;;;19.70;99.00;;;;;;5104130;28;20112;-81
2021/09/09 22:26:23;;;;;;;8.25;4.28;;;19.60;99.10;;;;;;5121327;28;20496;-80
2021/09/09 22:28:49;;;;;;;5.90;4.00;;;19.70;99.20;;;;;;5116487;28;20024;-81
2021/09/09 22:31:15;;;;;;;6.95;4.15;;;19.60;99.20;;;;;;5101413;28;20050;-81
2021/09/09 22:33:40;;;;;;;9.05;4.15;;;19.60;99.30;;;;;;5101600;28;20020;-81
2021/09/09 22:36:06;;;;;;;7.00;3.90;;;19.60;99.20;;;;;;5109977;28;20028;-80
2021/09/09 22:38:31;;;;;;;6.82;4.45;;;19.60;99.20;;;;;;5102913;28;20032;-81
2021/09/09 22:40:57;;;;;;;6.47;4.10;;;19.50;99.40;;;;;;5101290;28;20052;-81
2021/09/09 22:43:23;;;;;;;9.68;4.50;;;19.60;99.40;;;;;;5100356;28;20028;-82
2021/09/09 22:45:48;;;;;;;6.63;4.30;;;19.50;99.50;;;;;;5100954;28;20016;-80
2021/09/09 22:48:14;;;;;;;8.75;4.20;;;19.60;99.60;;;;;;5082745;28;20051;-81
2021/09/09 22:50:39;;;;;;;6.68;4.32;;;19.60;99.60;;;;;;5101248;28;20085;-80
2021/09/09 22:53:05;;;;;;;9.60;4.45;;;19.60;99.90;;;;;;5101202;28;20031;-81
2021/09/09 22:55:31;;;;;;;8.00;4.55;;;19.60;99.70;;;;;;5083409;28;20455;-81
2021/09/09 22:57:56;;;;;;;6.18;3.92;;;19.70;99.90;;;;;;5102271;28;20027;-81
2021/09/09 23:00:22;;;;;;;6.82;4.05;;;19.70;99.80;;;;;;5101105;28;20111;-81
2021/09/09 23:02:48;;;;;;;7.78;3.80;;;19.70;99.90;;;;;;5141940;22;20267;-80
2021/09/09 23:05:13;;;;;;;6.00;3.97;;;19.70;99.50;;;;;;5159416;27;19999;-82
2021/09/09 23:07:39;;;;;;;7.40;4.82;;;19.70;99.60;;;;;;5147090;27;20050;-82
2021/09/09 23:10:05;;;;;;;8.27;4.28;;;19.70;99.60;;;;;;5123764;28;20478;-80
2021/09/09 23:12:31;;;;;;;7.28;3.95;;;19.70;99.60;;;;;;5166346;27;20068;-81
2021/09/09 23:14:56;;;;;;;7.13;4.60;;;19.70;99.90;;;;;;5166894;27;20712;-80
2021/09/09 23:17:22;;;;;;;7.22;4.25;;;19.70;99.90;;;;;;5145079;27;20148;-79
2021/09/09 23:19:48;;;;;;;7.78;4.68;;;19.70;99.90;;;;;;5145196;27;20389;-81
2021/09/09 23:22:13;;;;;;;7.45;4.57;;;19.60;99.90;;;;;;5167164;27;20023;-81
2021/09/09 23:24:39;;;;;;;8.90;3.97;;;19.60;99.90;;;;;;5156250;27;20039;-81
2021/09/09 23:27:05;;;;;;;5.85;4.18;;;19.50;99.90;;;;;;5140543;27;20058;-82
2021/09/09 23:29:31;;;;;;;7.00;4.60;;;19.50;99.90;;;;;;5123520;28;20031;-80
2021/09/09 23:31:57;;;;;;;7.18;4.07;;;19.40;99.90;;;;;;5124751;28;20080;-80
2021/09/09 23:34:23;;;;;;;8.40;3.95;;;19.40;99.90;;;;;;5124553;28;20463;-81
2021/09/09 23:36:48;;;;;;;8.93;4.43;;;19.40;99.90;;;;;;5131369;27;20338;-81
2021/09/09 23:39:14;;;;;;;6.88;4.00;;;19.40;99.90;;;;;;5124181;28;20020;-81
2021/09/09 23:41:40;;;;;;;6.93;4.50;;;19.40;99.90;;;;;;5123382;28;20038;-80
2021/09/09 23:44:05;;;;;;;7.78;4.70;;;19.40;99.90;;;;;;5134687;28;20087;-81
2021/09/09 23:46:31;;;;;;;8.20;4.53;;;19.30;99.90;;;;;;5138885;28;20134;-79
2021/09/09 23:48:57;;;;;;;8.63;4.40;;;19.30;99.90;;;;;;5122567;28;20450;-80
2021/09/09 23:51:22;;;;;;;9.52;4.68;;;19.30;99.90;;;;;;5123788;28;20012;-81
2021/09/09 23:53:48;;;;;;;7.18;4.63;;;19.30;99.90;;;;;;5140705;28;20111;-80
2021/09/09 23:56:14;;;;;;;7.60;4.55;;;19.40;99.90;;;;;;5124090;28;20062;-80
2021/09/09 23:58:41;;;;;;;8.20;4.57;;;19.30;99.90;;;;;;5125435;28;20077;-80
